Portada
METAR-TAF:

METAR-TAF

Aeropuertos :

Aeropuerto de Hévíz-Balaton

Hévíz, Hungría

latitud: 46-41-11N, longitud: 017-09-33E, altitud: 124 m

Observación

El informe se hizo hace 25 minutos, a las 02:15 UTC
Viento 7 kt del oeste-noroeste, variando entre oeste y norte-noroeste
Temperatura 12°C
Humedad 94%
Presión 1016 hPa
Visibilidad 10 km o más
Cielo nuboso a una altura de 2800 ft
Cielo nuboso a una altura de 6200 ft

METAR: LHSM 010215Z AUTO 29007KT 270V330 9999 BKN028 BKN062 12/11 Q1016

Hora: 04:40 (02:40 UTC)


TAF: falta

Observaciones y pronósticos meteorológicos de más de 4000 aeropuertos (mensajes METAR y TAF).

Los puntos amarillos y rojos representan las estaciones disponibles.

Ponga el ratón en el punto deseado para ver el nombre de la estación.

Haga clic para ver las observaciones y los pronósticos meteorológicos.

Para cambiar el mapa : haga clic en los botones verdes con una cruz de color negro para hacer un zoom, en el botón verde con un guión para alejar o en las flechas verdes para mapas adyacentes.


METAR-TAF: